Ordinary, Virginia
Current Conditions -  °F | °C
As of 10:54 AM on Sunday 23 Nov 2014 (Local Time) from KPHF Reporting Station
Light Rain Light Rain  
Wind Chill: 53°   Ceiling: Unl
Heat Index: 53°   Visibility: 10mi
Dew Point: 40°   Wind: 0mph
Humidity: 61%   Direction: NA
Pressure: 30.25"   Gusts: NA
Location:  37.31°N, 76.51°W
Report Text: KPHF 231554Z 00000KT 10SM -RA CLR 12/04 A3025 RMK AO2 RAB27 SLP244 P0000 T01170044 $
Loading
Personal Weather Stations






























Interactive Weather Map New forecast layout! Learn more

10-Day Weather Forecast

Advertisements
Track Severe Weather on mobile